Time;durP1;ratioP1;P1;durP2;ratioP2;P2;SDS_P1;SDS_P2;PMS_P1;PMS_P2;Temp;Humidity;BMP_temperature;BMP_pressure;BME280_temperature;BME280_humidity;BME280_pressure;Samples;Min_cycle;Max_cycle;Signal;HPM_P1;HPM_P2
2022/02/17 00:01:35;;;;;;;6.77;2.03;;;;;;;11.31;100.00;99295.63;5055935;28;20021;-36
2022/02/17 00:04:00;;;;;;;11.17;2.60;;;;;;;11.29;100.00;99270.75;5054500;28;20033;-36
2022/02/17 00:06:25;;;;;;;6.37;2.30;;;;;;;11.38;100.00;99281.84;5055539;28;20401;-36
2022/02/17 00:08:51;;;;;;;7.27;2.47;;;;;;;11.37;100.00;99304.53;5055890;28;20059;-35
2022/02/17 00:11:16;;;;;;;6.53;2.27;;;;;;;11.35;100.00;99307.53;5054289;28;20029;-35
2022/02/17 00:13:42;;;;;;;6.87;2.20;;;;;;;11.34;100.00;99289.69;5055611;28;20479;-35
2022/02/17 00:16:07;;;;;;;7.10;2.25;;;;;;;11.31;100.00;99279.38;5055793;28;20259;-36
2022/02/17 00:18:32;;;;;;;6.77;1.90;;;;;;;11.39;100.00;99294.28;5055810;28;20433;-35
2022/02/17 00:20:58;;;;;;;6.53;2.23;;;;;;;11.38;100.00;99323.25;5055939;28;20025;-36
2022/02/17 00:23:25;;;;;;;7.43;2.08;;;;;;;11.40;100.00;99323.75;5055120;28;20393;-36
2022/02/17 00:25:50;;;;;;;5.20;1.92;;;;;;;11.33;100.00;99312.41;5055359;28;20117;-36
2022/02/17 00:28:16;;;;;;;5.65;2.15;;;;;;;11.41;100.00;99319.16;5055448;28;20108;-36
2022/02/17 00:30:41;;;;;;;8.23;2.22;;;;;;;11.44;100.00;99345.69;5056000;28;20029;-35
2022/02/17 00:33:07;;;;;;;7.70;2.10;;;;;;;11.46;100.00;99325.38;5055175;28;20033;-35
2022/02/17 00:35:32;;;;;;;7.93;2.28;;;;;;;11.35;100.00;99326.47;5055186;28;20029;-35
2022/02/17 00:37:58;;;;;;;5.90;2.30;;;;;;;11.40;100.00;99331.06;5055103;28;20044;-35
2022/02/17 00:40:24;;;;;;;4.93;2.03;;;;;;;11.33;100.00;99334.06;5055693;28;20135;-35
2022/02/17 00:42:49;;;;;;;7.40;2.15;;;;;;;11.40;100.00;99333.78;5055336;28;20029;-35
2022/02/17 00:45:15;;;;;;;7.47;1.80;;;;;;;11.37;100.00;99343.28;5055131;28;20041;-35
2022/02/17 00:47:40;;;;;;;9.32;2.42;;;;;;;11.33;100.00;99337.59;5055204;28;20039;-36
2022/02/17 00:50:06;;;;;;;10.13;2.97;;;;;;;11.24;100.00;99343.81;5055312;28;20033;-36
2022/02/17 00:52:31;;;;;;;10.20;2.80;;;;;;;11.18;100.00;99325.97;5054925;28;20271;-36
2022/02/17 00:54:56;;;;;;;12.37;3.10;;;;;;;11.17;100.00;99321.63;5055704;28;20430;-36
2022/02/17 00:57:22;;;;;;;11.97;3.07;;;;;;;11.17;98.29;99333.25;5054928;28;20041;-36
2022/02/17 00:59:47;;;;;;;11.10;3.27;;;;;;;11.22;97.21;99359.50;5054746;28;20523;-36
2022/02/17 01:02:13;;;;;;;14.48;3.53;;;;;;;11.25;95.12;99340.03;5054896;28;20428;-36
2022/02/17 01:04:38;;;;;;;13.82;3.80;;;;;;;11.25;95.17;99367.09;5054891;28;20090;-36
2022/02/17 01:07:04;;;;;;;14.25;3.85;;;;;;;11.24;94.84;99370.88;5054413;28;20025;-36
2022/02/17 01:09:29;;;;;;;15.80;3.47;;;;;;;11.26;94.39;99360.56;5054233;28;20051;-36
2022/02/17 01:11:55;;;;;;;9.60;2.47;;;;;;;11.26;92.72;99363.28;5054852;28;20202;-36
2022/02/17 01:14:20;;;;;;;10.47;3.67;;;;;;;11.25;93.06;99381.41;5054680;28;20128;-36
2022/02/17 01:16:46;;;;;;;14.93;4.03;;;;;;;11.23;92.37;99364.66;5054500;28;20388;-36
2022/02/17 01:19:12;;;;;;;11.02;3.03;;;;;;;11.27;91.26;99414.44;5054618;28;20037;-36
2022/02/17 01:21:37;;;;;;;15.73;3.38;;;;;;;11.28;90.59;99416.06;5054270;28;20403;-36
2022/02/17 01:24:03;;;;;;;13.87;3.50;;;;;;;11.27;90.06;99414.44;5054758;28;20025;-36
2022/02/17 01:26:29;;;;;;;15.10;3.65;;;;;;;11.24;88.96;99425.00;5054182;28;20671;-36
2022/02/17 01:28:54;;;;;;;18.30;4.30;;;;;;;11.24;88.46;99400.63;5054187;28;20450;-36
2022/02/17 01:31:20;;;;;;;19.80;4.40;;;;;;;11.27;88.35;99408.19;5054509;28;20032;-36
2022/02/17 01:33:45;;;;;;;14.88;3.78;;;;;;;11.16;87.59;99395.75;5054050;28;20275;-36
2022/02/17 01:36:11;;;;;;;16.10;3.80;;;;;;;11.25;87.16;99427.41;5054536;28;20025;-36
2022/02/17 01:38:38;;;;;;;13.23;3.65;;;;;;;11.22;88.81;99437.97;5053667;28;20033;-36
2022/02/17 01:41:05;;;;;;;11.60;3.88;;;;;;;11.19;88.48;99433.91;5053557;28;20481;-36
2022/02/17 01:43:32;;;;;;;12.50;3.70;;;;;;;11.00;87.69;99414.69;5053906;28;20485;-36
2022/02/17 01:45:59;;;;;;;13.95;3.75;;;;;;;11.15;86.86;99461.78;5068868;28;20021;-36
2022/02/17 01:48:24;;;;;;;15.88;5.20;;;;;;;11.14;85.93;99460.16;5053609;28;20025;-36
2022/02/17 01:50:50;;;;;;;15.57;4.15;;;;;;;11.04;84.01;99475.28;5053516;28;20086;-36
2022/02/17 01:53:16;;;;;;;14.20;3.97;;;;;;;11.05;81.30;99484.22;5053862;28;20522;-35
2022/02/17 01:55:45;;;;;;;10.80;3.78;;;;;;;11.07;82.36;99480.13;5053964;28;20118;-36
2022/02/17 01:58:10;;;;;;;15.68;3.90;;;;;;;10.98;80.25;99498.00;5053366;28;20140;-36
2022/02/17 02:00:36;;;;;;;14.20;3.50;;;;;;;11.02;79.43;99482.84;5053300;28;20103;-36
2022/02/17 02:03:01;;;;;;;12.75;3.83;;;;;;;10.90;79.04;99500.41;5053737;28;20112;-36
2022/02/17 02:05:27;;;;;;;12.20;3.23;;;;;;;10.92;79.84;99512.56;5053552;28;20476;-36
2022/02/17 02:07:52;;;;;;;12.18;4.05;;;;;;;10.87;79.51;99534.19;5053133;28;20132;-36
2022/02/17 02:10:18;;;;;;;13.60;4.43;;;;;;;10.82;79.58;99509.81;5053939;28;20412;-36
2022/02/17 02:12:43;;;;;;;12.67;3.73;;;;;;;10.72;80.55;99524.13;5053365;28;20079;-36
2022/02/17 02:15:09;;;;;;;15.93;3.90;;;;;;;10.54;80.88;99492.13;5053577;28;20620;-36
2022/02/17 02:17:34;;;;;;;16.13;4.53;;;;;;;10.53;80.89;99504.84;5052942;28;20094;-36
2022/02/17 02:20:05;;;;;;;18.38;4.63;;;;;;;10.57;81.10;99524.06;5054078;28;20449;-36
2022/02/17 02:22:32;;;;;;;19.98;4.82;;;;;;;10.55;81.34;99554.06;5053139;28;20055;-36
2022/02/17 02:24:59;;;;;;;14.55;4.00;;;;;;;10.43;81.50;99531.81;5053599;28;20055;-36
2022/02/17 02:27:25;;;;;;;18.88;4.70;;;;;;;10.43;80.46;99537.22;5053177;28;20029;-36
2022/02/17 02:29:51;;;;;;;20.08;5.38;;;;;;;10.37;80.99;99532.88;5053179;28;20029;-36
2022/02/17 02:32:16;;;;;;;17.47;5.03;;;;;;;10.34;79.78;99519.06;5053405;28;20112;-36
2022/02/17 02:34:42;;;;;;;18.35;5.05;;;;;;;10.42;78.63;99553.69;5052467;28;20056;-36
2022/02/17 02:37:07;;;;;;;21.45;5.28;;;;;;;10.39;77.93;99584.75;5053283;28;20029;-36
2022/02/17 02:39:33;;;;;;;21.27;5.65;;;;;;;10.38;77.52;99579.63;5053897;28;20465;-36
2022/02/17 02:42:00;;;;;;;24.15;5.88;;;;;;;10.31;77.80;99580.66;5052786;28;20067;-36
2022/02/17 02:44:26;;;;;;;18.75;4.85;;;;;;;10.33;77.09;99593.91;5053070;28;20025;-36
2022/02/17 02:46:52;;;;;;;18.15;5.05;;;;;;;10.27;77.16;99606.56;5052711;28;20024;-36
2022/02/17 02:49:17;;;;;;;18.70;5.00;;;;;;;10.17;77.02;99602.94;5053006;28;20072;-36
2022/02/17 02:51:43;;;;;;;19.47;5.13;;;;;;;10.21;76.65;99604.06;5052895;28;20124;-36
2022/02/17 02:54:09;;;;;;;19.15;4.95;;;;;;;10.19;76.30;99576.47;5052868;28;20025;-36
2022/02/17 02:56:34;;;;;;;18.90;5.75;;;;;;;10.17;76.68;99628.06;5053093;28;20078;-36
2022/02/17 02:59:00;;;;;;;17.50;5.33;;;;;;;10.15;76.01;99624.81;5053400;28;20041;-36
2022/02/17 03:01:25;;;;;;;16.20;4.50;;;;;;;10.08;76.00;99624.22;5053014;28;20053;-36
2022/02/17 03:03:51;;;;;;;18.55;4.93;;;;;;;10.05;74.75;99636.34;5052874;28;20029;-36
2022/02/17 03:06:17;;;;;;;16.70;4.03;;;;;;;10.00;75.81;99644.41;5053603;28;20025;-36
2022/02/17 03:08:42;;;;;;;;;;;;;;;10.03;75.29;99630.38;5053105;28;20025;-36
2022/02/17 03:11:07;;;;;;;16.20;4.43;;;;;;;9.98;74.05;99657.34;5053307;28;19967;-36
2022/02/17 03:13:33;;;;;;;14.10;3.70;;;;;;;9.90;73.05;99646.19;5052642;28;20275;-36
2022/02/17 03:15:58;;;;;;;14.82;3.55;;;;;;;9.92;72.37;99662.97;5053428;28;20032;-36
2022/02/17 03:18:24;;;;;;;13.38;3.55;;;;;;;9.93;73.30;99678.91;5052395;28;20029;-36
2022/02/17 03:20:49;;;;;;;13.93;3.70;;;;;;;9.88;72.17;99686.13;5052926;28;20029;-36
2022/02/17 03:23:15;;;;;;;12.75;3.63;;;;;;;9.91;72.77;99683.75;5053121;28;20075;-36
2022/02/17 03:25:40;;;;;;;17.07;4.50;;;;;;;9.80;73.00;99655.00;5053407;28;20029;-36
2022/02/17 03:28:05;;;;;;;18.95;4.55;;;;;;;9.83;74.13;99695.00;5052927;28;20028;-36
2022/02/17 03:30:31;;;;;;;18.25;4.35;;;;;;;9.80;74.49;99698.19;5053312;28;20025;-36
2022/02/17 03:32:57;;;;;;;13.77;3.83;;;;;;;9.80;74.91;99703.59;5052497;28;20457;-36
2022/02/17 03:35:22;;;;;;;19.60;5.85;;;;;;;9.83;75.29;99729.28;5052452;28;20029;-36
2022/02/17 03:37:48;;;;;;;23.23;5.60;;;;;;;9.81;76.45;99734.94;5052920;28;20025;-36
2022/02/17 03:40:13;;;;;;;20.47;5.60;;;;;;;9.80;76.46;99731.41;5052745;28;20040;-36
2022/02/17 03:42:40;;;;;;;20.00;5.20;;;;;;;9.83;76.88;99730.09;5052310;28;20025;-36
2022/02/17 03:45:06;;;;;;;23.25;5.65;;;;;;;9.80;76.19;99733.28;5052348;28;20480;-36
2022/02/17 03:47:32;;;;;;;24.65;6.55;;;;;;;9.83;75.73;99719.28;5055804;28;20021;-36
2022/02/17 03:49:57;;;;;;;17.83;5.23;;;;;;;9.77;76.13;99742.72;5056134;28;20029;-36
2022/02/17 03:52:22;;;;;;;24.13;6.87;;;;;;;9.75;76.07;99744.84;5056008;28;20503;-36
2022/02/17 03:54:48;;;;;;;27.93;6.47;;;;;;;9.74;75.43;99742.41;5056060;28;20036;-36
2022/02/17 03:57:13;;;;;;;24.43;6.10;;;;;;;9.74;75.25;99742.41;5055970;28;20048;-36
2022/02/17 03:59:38;;;;;;;27.60;7.27;;;;;;;9.72;75.56;99749.97;5056507;28;20032;-36
2022/02/17 04:02:04;;;;;;;25.57;5.97;;;;;;;9.68;75.91;99765.84;5055558;28;20086;-36
2022/02/17 04:04:30;;;;;;;22.88;6.32;;;;;;;9.70;75.31;99776.38;5056078;28;20025;-36
2022/02/17 04:06:55;;;;;;;22.43;5.70;;;;;;;9.70;75.51;99774.47;5055717;28;20070;-36
2022/02/17 04:09:20;;;;;;;21.87;5.63;;;;;;;9.68;75.63;99775.81;5056446;28;20028;-36
2022/02/17 04:11:46;;;;;;;23.03;6.17;;;;;;;9.63;75.95;99779.28;5056335;28;20279;-36
2022/02/17 04:14:12;;;;;;;25.23;6.35;;;;;;;9.58;75.77;99770.28;5055717;28;20040;-36
2022/02/17 04:16:37;;;;;;;21.75;5.10;;;;;;;9.66;74.54;99786.03;5055758;28;20025;-36
2022/02/17 04:19:02;;;;;;;22.70;6.03;;;;;;;9.55;74.48;99794.00;5055910;28;20400;-36
2022/02/17 04:21:28;;;;;;;21.93;5.60;;;;;;;9.58;74.64;99786.50;5055565;28;20770;-36
2022/02/17 04:23:53;;;;;;;22.17;6.13;;;;;;;9.61;73.83;99810.25;5054398;28;20033;-36
2022/02/17 04:26:20;;;;;;;25.73;5.90;;;;;;;9.65;74.88;99833.00;5055536;28;20677;-36
2022/02/17 04:28:46;;;;;;;21.70;6.10;;;;;;;9.67;73.87;99823.59;5055353;28;20469;-36
2022/02/17 04:31:12;;;;;;;17.85;5.00;;;;;;;9.67;73.77;99852.47;5055692;28;20107;-36
2022/02/17 04:33:39;;;;;;;28.75;7.15;;;;;;;9.57;74.52;99804.56;5055301;28;20075;-36
2022/02/17 04:36:05;;;;;;;22.52;5.88;;;;;;;9.62;74.82;99836.22;5055876;28;20028;-35
2022/02/17 04:38:30;;;;;;;23.60;7.00;;;;;;;9.61;75.57;99839.94;5054927;28;20108;-35
2022/02/17 04:43:41;;;;;;;26.90;6.10;;;;;;;9.59;77.20;99858.28;5055433;28;20044;-36
2022/02/17 04:46:07;;;;;;;31.42;7.50;;;;;;;9.37;76.56;99826.69;5053628;28;20474;-35
2022/02/17 04:48:34;;;;;;;31.98;8.93;;;;;;;9.54;77.48;99889.53;5054882;28;20373;-35
2022/02/17 04:50:59;;;;;;;25.33;7.03;;;;;;;9.44;77.79;99902.88;5054863;28;20028;-36
2022/02/17 04:53:25;;;;;;;27.27;7.10;;;;;;;9.41;78.29;99878.25;5054865;28;20078;-35
2022/02/17 04:55:50;;;;;;;29.85;7.70;;;;;;;9.42;77.76;99874.50;5055365;28;20259;-35
2022/02/17 04:58:16;;;;;;;26.30;7.07;;;;;;;9.48;78.12;99889.72;5054524;28;20057;-35
2022/02/17 05:00:44;;;;;;;26.63;6.93;;;;;;;9.47;77.79;99894.31;5054752;28;20108;-35
2022/02/17 05:03:10;;;;;;;27.17;7.18;;;;;;;9.42;77.34;99880.72;5055160;28;20078;-35
2022/02/17 05:05:35;;;;;;;28.63;6.93;;;;;;;9.39;76.64;99881.22;5054977;28;20040;-35
2022/02/17 05:08:01;;;;;;;26.93;7.47;;;;;;;9.42;77.48;99898.78;5054294;28;20499;-35
2022/02/17 05:10:26;;;;;;;29.77;7.00;;;;;;;9.41;77.64;99908.75;5055346;28;20048;-35
2022/02/17 05:12:51;;;;;;;26.20;6.83;;;;;;;9.43;76.86;99914.75;5055030;28;20062;-35
2022/02/17 05:15:17;;;;;;;29.60;8.10;;;;;;;9.43;77.52;99940.91;5054816;28;20029;-35
2022/02/17 05:17:42;;;;;;;26.50;7.00;;;;;;;9.40;76.74;99939.50;5054563;28;20400;-35
2022/02/17 05:20:08;;;;;;;26.37;7.10;;;;;;;9.36;76.33;99932.97;5054484;28;20461;-35
2022/02/17 05:22:39;;;;;;;31.13;7.40;;;;;;;9.35;77.15;99947.50;5054372;28;20071;-35
2022/02/17 05:25:05;;;;;;;26.85;6.82;;;;;;;9.33;76.39;99944.25;5054638;28;20039;-35
2022/02/17 05:27:31;;;;;;;28.58;6.90;;;;;;;9.35;76.01;99958.31;5054077;28;20393;-36
2022/02/17 05:29:56;;;;;;;23.60;7.03;;;;;;;9.22;75.82;99937.03;5054502;28;20035;-40
2022/02/17 05:32:21;;;;;;;25.20;6.07;;;;;;;9.33;75.68;99955.06;5054134;28;20112;-36
2022/02/17 05:34:46;;;;;;;26.23;6.23;;;;;;;9.29;76.17;99972.78;5054670;28;20039;-36
2022/02/17 05:37:12;;;;;;;33.20;7.90;;;;;;;9.26;76.20;99962.47;5054505;28;20032;-36
2022/02/17 05:39:37;;;;;;;30.23;6.53;;;;;;;9.20;76.45;99963.44;5054363;28;20449;-36
2022/02/17 05:42:03;;;;;;;21.93;6.77;;;;;;;9.19;76.68;99981.50;5054081;28;20528;-36
2022/02/17 05:44:28;;;;;;;30.63;7.32;;;;;;;9.15;76.32;99993.84;5054458;28;20465;-36
2022/02/17 05:46:53;;;;;;;24.50;6.27;;;;;;;9.16;75.98;99991.97;5053516;28;20461;-36
2022/02/17 05:49:19;;;;;;;30.33;7.70;;;;;;;9.15;75.82;99971.44;5053946;28;20060;-36
2022/02/17 05:51:44;;;;;;;29.00;8.13;;;;;;;9.13;75.90;99992.47;5054259;28;20032;-36
2022/02/17 05:54:09;;;;;;;23.87;6.43;;;;;;;9.14;76.06;99996.78;5053585;28;20025;-36
2022/02/17 05:56:35;;;;;;;28.80;7.22;;;;;;;9.06;75.79;100006.06;5053623;28;20469;-36
2022/02/17 05:59:00;;;;;;;24.40;5.90;;;;;;;9.14;75.61;100012.97;5054849;28;20060;-36
2022/02/17 06:01:25;;;;;;;21.83;6.23;;;;;;;9.10;76.24;100017.22;5053316;28;20090;-35
2022/02/17 06:03:51;;;;;;;22.87;6.07;;;;;;;9.11;76.18;100043.94;5053361;28;20021;-36
2022/02/17 06:06:16;;;;;;;29.60;6.13;;;;;;;9.09;75.02;100031.75;5053624;28;20032;-36
2022/02/17 06:08:41;;;;;;;32.50;7.10;;;;;;;9.09;74.93;100047.94;5052738;28;20106;-36
2022/02/17 06:11:07;;;;;;;21.63;5.90;;;;;;;8.97;74.78;100027.22;5053569;28;20060;-36
2022/02/17 06:13:32;;;;;;;25.93;6.47;;;;;;;8.99;74.80;100046.69;5053747;28;20041;-36
2022/02/17 06:15:57;;;;;;;22.90;6.60;;;;;;;9.02;74.95;100040.78;5053672;28;20028;-36
2022/02/17 06:18:23;;;;;;;22.63;6.33;;;;;;;8.98;75.20;100082.00;5053174;28;20561;-36
2022/02/17 06:20:49;;;;;;;26.55;6.38;;;;;;;8.96;74.57;100066.03;5053844;28;20035;-36
2022/02/17 06:23:14;;;;;;;20.70;5.68;;;;;;;8.84;74.46;100067.97;5054063;28;20051;-36
2022/02/17 06:25:39;;;;;;;19.50;5.07;;;;;;;8.81;75.02;100052.25;5053560;28;20086;-35
2022/02/17 06:28:05;;;;;;;21.63;6.20;;;;;;;8.84;73.25;100070.66;5052897;28;20124;-35
2022/02/17 06:30:30;;;;;;;21.80;5.80;;;;;;;8.89;73.59;100078.03;5053237;28;20762;-35
2022/02/17 06:32:56;;;;;;;22.60;4.82;;;;;;;8.86;74.35;100094.66;5053590;28;20086;-35
2022/02/17 06:35:33;;;;;;;20.67;5.88;;;;;;;8.84;74.20;100107.59;5053447;28;20025;-35
2022/02/17 06:37:59;;;;;;;18.73;5.35;;;;;;;8.79;73.34;100102.91;5051878;28;20078;-35
2022/02/17 06:40:26;;;;;;;19.17;4.85;;;;;;;8.76;73.30;100101.47;5053762;28;20032;-35
2022/02/17 06:42:52;;;;;;;19.17;5.30;;;;;;;8.78;73.78;100117.41;5053380;28;20025;-35
2022/02/17 06:45:17;;;;;;;16.30;4.93;;;;;;;8.76;74.00;100111.44;5053433;28;20051;-35
2022/02/17 06:47:43;;;;;;;19.00;5.30;;;;;;;8.71;73.78;100128.31;5052714;28;20552;-35
2022/02/17 06:50:09;;;;;;;15.60;4.27;;;;;;;8.55;74.42;100095.91;5052662;28;20032;-35
2022/02/17 06:52:35;;;;;;;;;;;;;;;8.72;73.83;100138.03;5053329;28;20144;-35
2022/02/17 06:55:00;;;;;;;21.98;4.32;;;;;;;8.67;73.23;100147.91;5053655;28;19948;-35
2022/02/17 06:57:26;;;;;;;23.60;5.32;;;;;;;8.69;72.50;100157.41;5052764;28;20080;-36
2022/02/17 06:59:52;;;;;;;20.20;4.68;;;;;;;8.60;73.28;100166.06;5051451;28;20033;-35
2022/02/17 07:02:25;;;;;;;16.17;4.70;;;;;;;8.65;73.78;100168.88;5052571;28;20031;-35
2022/02/17 07:04:50;;;;;;;19.10;4.78;;;;;;;8.63;74.09;100173.69;5053149;28;20053;-35
2022/02/17 07:07:16;;;;;;;32.53;5.65;;;;;;;8.63;73.43;100181.75;5052693;28;20163;-35
2022/02/17 07:09:41;;;;;;;18.23;4.95;;;;;;;8.57;73.53;100185.41;5053491;28;20071;-35
2022/02/17 07:12:07;;;;;;;16.87;5.53;;;;;;;8.59;73.74;100191.38;5053114;28;20489;-36
2022/02/17 07:14:33;;;;;;;17.00;4.25;;;;;;;8.62;73.68;100193.59;5052505;28;20033;-36
2022/02/17 07:16:59;;;;;;;22.33;4.90;;;;;;;8.64;73.70;100213.91;5052444;28;20070;-36
2022/02/17 07:19:25;;;;;;;17.58;5.10;;;;;;;8.59;73.52;100212.94;5052709;28;20032;-35
2022/02/17 07:21:51;;;;;;;17.70;4.32;;;;;;;8.63;73.79;100216.81;5055616;28;20524;-35
2022/02/17 07:24:18;;;;;;;18.02;5.38;;;;;;;8.54;73.65;100199.34;5056531;28;20101;-35
2022/02/17 07:26:44;;;;;;;23.60;5.53;;;;;;;8.66;73.29;100221.72;5056456;28;20108;-35
2022/02/17 07:29:10;;;;;;;22.15;4.93;;;;;;;8.66;73.38;100237.91;5056512;28;20111;-35
2022/02/17 07:31:35;;;;;;;20.90;5.35;;;;;;;8.63;73.96;100239.19;5056294;28;20068;-35
2022/02/17 07:34:00;;;;;;;24.40;5.57;;;;;;;8.66;74.18;100256.78;5057094;28;20056;-35
2022/02/17 07:36:26;;;;;;;20.87;5.67;;;;;;;8.64;74.45;100269.69;5057047;28;20052;-35
2022/02/17 07:38:51;;;;;;;16.40;5.03;;;;;;;8.64;75.04;100272.38;5056116;28;20024;-36
2022/02/17 07:41:17;;;;;;;17.73;5.40;;;;;;;8.57;73.75;100260.84;5056652;28;20029;-39
2022/02/17 07:43:43;;;;;;;22.90;5.07;;;;;;;8.63;74.17;100284.19;5055939;28;20120;-36
2022/02/17 07:46:08;;;;;;;22.48;4.95;;;;;;;8.62;73.65;100269.88;5054946;28;20283;-36
2022/02/17 07:48:34;;;;;;;19.33;5.03;;;;;;;8.57;74.65;100294.00;5056223;28;20021;-36
2022/02/17 07:50:59;;;;;;;19.17;4.40;;;;;;;8.56;74.19;100292.38;5056147;28;20036;-36
2022/02/17 07:53:24;;;;;;;20.37;4.77;;;;;;;8.62;73.49;100317.59;5056729;28;20021;-35
2022/02/17 07:55:50;;;;;;;19.03;5.10;;;;;;;8.64;73.20;100310.09;5056715;28;20287;-35
2022/02/17 07:58:17;;;;;;;30.45;5.95;;;;;;;8.67;74.85;100315.00;5056869;28;20376;-36
2022/02/17 08:00:46;;;;;;;20.52;6.03;;;;;;;8.65;74.40;100311.75;5056588;28;20414;-35
2022/02/17 08:03:13;;;;;;;24.50;5.55;;;;;;;8.65;75.60;100320.66;5055617;28;20025;-35
2022/02/17 08:05:38;;;;;;;18.08;4.65;;;;;;;8.63;75.92;100321.91;5055886;28;20021;-35
2022/02/17 08:08:05;;;;;;;19.00;5.53;;;;;;;8.55;75.96;100322.25;5055804;28;20040;-35
2022/02/17 08:10:31;;;;;;;26.25;5.57;;;;;;;8.44;74.46;100311.22;5055774;28;20068;-35
2022/02/17 08:12:56;;;;;;;24.92;6.15;;;;;;;8.58;75.33;100337.97;5056223;28;20082;-35
2022/02/17 08:15:21;;;;;;;23.97;6.60;;;;;;;8.62;74.94;100339.97;5056241;28;20118;-35
2022/02/17 08:17:47;;;;;;;24.60;4.93;;;;;;;8.62;74.16;100345.34;5055672;28;20037;-35
2022/02/17 08:20:13;;;;;;;18.47;5.50;;;;;;;8.59;74.02;100334.19;5055370;28;20032;-35
2022/02/17 08:22:47;;;;;;;21.75;5.50;;;;;;;8.68;73.47;100354.38;5055466;28;20025;-35
2022/02/17 08:25:12;;;;;;;19.92;4.35;;;;;;;8.70;72.22;100357.69;5055651;28;20457;-35
2022/02/17 08:27:38;;;;;;;14.70;4.17;;;;;;;8.76;69.95;100378.34;5054990;28;20036;-35
2022/02/17 08:30:04;;;;;;;14.37;3.80;;;;;;;8.78;69.69;100378.91;5055627;28;20029;-35
2022/02/17 08:32:34;;;;;;;;;;;;;;;8.87;69.54;100380.22;5055217;28;20052;-35
2022/02/17 08:34:59;;;;;;;19.52;4.03;;;;;;;8.88;68.82;100384.59;5055580;28;19962;-35
2022/02/17 08:37:24;;;;;;;10.90;3.03;;;;;;;8.92;68.74;100383.06;5055295;28;20375;-35
2022/02/17 08:39:50;;;;;;;14.27;3.33;;;;;;;8.89;68.92;100391.63;5055806;28;20083;-35
2022/02/17 08:42:15;;;;;;;14.30;3.75;;;;;;;8.77;68.22;100359.22;5055636;28;20037;-35
2022/02/17 08:44:41;;;;;;;13.53;3.87;;;;;;;8.86;69.08;100366.97;5054918;28;20029;-35
2022/02/17 08:47:06;;;;;;;18.87;4.60;;;;;;;8.82;68.71;100387.38;5055294;28;20029;-35
2022/02/17 08:49:31;;;;;;;14.10;3.43;;;;;;;8.90;68.69;100389.75;5055549;28;20462;-35
2022/02/17 08:51:57;;;;;;;14.37;3.40;;;;;;;8.98;69.00;100402.91;5055006;28;20446;-35
2022/02/17 08:54:22;;;;;;;17.93;4.10;;;;;;;8.96;68.26;100383.41;5055301;28;20056;-35
2022/02/17 08:56:47;;;;;;;15.47;3.77;;;;;;;9.02;66.88;100418.38;5054784;28;20041;-35
2022/02/17 08:59:13;;;;;;;14.53;3.63;;;;;;;9.00;67.65;100431.28;5054695;28;20028;-35
2022/02/17 09:01:38;;;;;;;12.70;3.63;;;;;;;9.01;67.36;100430.22;5054894;28;20116;-35
2022/02/17 09:04:04;;;;;;;11.38;3.20;;;;;;;9.01;67.00;100415.91;5055393;28;20048;-35
2022/02/17 09:06:30;;;;;;;13.23;2.88;;;;;;;9.02;66.79;100436.41;5054723;28;20031;-35
2022/02/17 09:08:55;;;;;;;15.55;3.63;;;;;;;9.03;65.80;100438.91;5054586;28;20024;-38
2022/02/17 09:11:21;;;;;;;13.30;3.13;;;;;;;9.09;65.88;100447.13;5054670;28;20032;-35
2022/02/17 09:13:46;;;;;;;10.23;2.87;;;;;;;9.09;64.27;100436.34;5054632;28;20024;-36
2022/02/17 09:16:12;;;;;;;14.13;3.03;;;;;;;9.15;62.89;100441.63;5055009;28;20060;-36
2022/02/17 09:18:37;;;;;;;10.73;2.40;;;;;;;9.21;63.79;100474.94;5054806;28;20068;-36
2022/02/17 09:21:03;;;;;;;6.20;1.92;;;;;;;9.21;61.33;100478.47;5055331;28;20290;-36
2022/02/17 09:23:28;;;;;;;8.30;2.43;;;;;;;9.13;63.05;100468.03;5054336;28;20028;-36
2022/02/17 09:25:54;;;;;;;10.27;2.30;;;;;;;9.27;62.62;100472.16;5054654;28;20248;-36
2022/02/17 09:28:19;;;;;;;7.10;1.73;;;;;;;9.27;62.20;100477.56;5054248;28;20104;-36
2022/02/17 09:30:44;;;;;;;9.33;2.03;;;;;;;9.31;61.78;100487.88;5054590;28;20059;-36
2022/02/17 09:33:10;;;;;;;7.30;2.10;;;;;;;9.43;61.42;100491.44;5054139;28;20029;-36
2022/02/17 09:35:35;;;;;;;9.43;2.40;;;;;;;9.42;61.00;100506.81;5069443;28;20068;-36
2022/02/17 09:38:00;;;;;;;7.43;2.47;;;;;;;9.42;60.87;100506.81;5053899;28;20519;-36
2022/02/17 09:40:26;;;;;;;8.93;2.67;;;;;;;9.46;62.33;100502.56;5053821;28;20473;-36
2022/02/17 09:42:51;;;;;;;12.20;2.55;;;;;;;9.46;60.12;100521.47;5053888;28;20099;-36
2022/02/17 09:45:17;;;;;;;8.50;2.63;;;;;;;9.44;61.66;100520.88;5054761;28;20056;-35
2022/02/17 09:47:44;;;;;;;8.95;2.50;;;;;;;9.46;62.23;100531.44;5053957;28;20358;-35
2022/02/17 09:50:12;;;;;;;7.78;1.77;;;;;;;9.49;59.80;100533.69;5053622;28;20548;-35
2022/02/17 09:52:38;;;;;;;9.75;2.33;;;;;;;9.58;60.81;100540.41;5054145;28;20047;-35
2022/02/17 09:55:06;;;;;;;7.37;2.27;;;;;;;9.60;59.92;100527.47;5054455;28;20020;-35
2022/02/17 09:57:32;;;;;;;10.63;2.10;;;;;;;9.53;60.14;100556.47;5054311;28;20287;-35
2022/02/17 09:59:59;;;;;;;8.23;2.08;;;;;;;9.52;59.66;100550.25;5054454;28;20029;-35
2022/02/17 10:02:26;;;;;;;7.53;2.05;;;;;;;9.63;60.59;100555.91;5053609;28;20045;-35
2022/02/17 10:04:56;;;;;;;7.40;2.00;;;;;;;9.74;61.04;100550.50;5053623;28;20025;-35
2022/02/17 10:07:32;;;;;;;11.98;2.40;;;;;;;9.80;61.49;100564.97;5053806;28;20185;-35
2022/02/17 10:10:06;;;;;;;11.77;3.58;;;;;;;9.64;60.99;100552.13;5053584;28;20051;-35
2022/02/17 10:12:50;;;;;;;7.00;2.35;;;;;;;9.80;62.21;100571.19;5053546;28;20394;-35
2022/02/17 10:15:36;;;;;;;13.05;2.60;;;;;;;9.73;61.66;100583.97;5053412;28;20527;-35
2022/02/17 10:18:10;;;;;;;9.35;2.53;;;;;;;9.61;61.30;100577.72;5053443;28;20555;-35
2022/02/17 10:21:02;;;;;;;7.10;1.92;;;;;;;9.63;61.86;100591.81;5053443;28;20093;-35
2022/02/17 10:23:30;;;;;;;10.05;2.85;;;;;;;9.62;61.50;100592.06;5053490;28;20033;-35
2022/02/17 10:25:57;;;;;;;10.43;3.03;;;;;;;9.65;61.16;100594.28;5053335;28;20421;-35
2022/02/17 10:28:23;;;;;;;9.80;2.50;;;;;;;9.65;62.58;100602.38;5053142;28;20035;-35
2022/02/17 10:30:48;;;;;;;11.87;2.73;;;;;;;9.66;61.48;100590.50;5053421;28;20025;-35
2022/02/17 10:33:13;;;;;;;7.97;2.20;;;;;;;9.72;60.17;100608.50;5053246;28;20031;-35
2022/02/17 10:35:51;;;;;;;9.53;2.70;;;;;;;9.84;59.67;100606.66;5053670;28;20469;-35
2022/02/17 10:38:20;;;;;;;8.35;2.42;;;;;;;9.93;59.85;100626.06;5053992;28;20148;-35
2022/02/17 10:40:52;;;;;;;10.63;1.92;;;;;;;9.84;58.69;100606.66;5053866;28;20111;-35
2022/02/17 10:43:18;;;;;;;7.65;2.03;;;;;;;9.98;57.50;100629.69;5052038;28;20073;-34
2022/02/17 10:45:46;;;;;;;7.85;1.80;;;;;;;10.01;57.42;100620.31;5053111;28;20421;-35
2022/02/17 10:48:18;;;;;;;5.13;1.40;;;;;;;10.12;56.86;100632.19;5052681;28;20091;-35
2022/02/17 10:51:12;;;;;;;4.97;1.40;;;;;;;10.18;57.52;100647.47;5053670;28;20025;-36
2022/02/17 10:53:40;;;;;;;7.03;1.83;;;;;;;10.11;57.41;100644.88;5053509;28;20453;-35
2022/02/17 10:56:08;;;;;;;5.78;1.83;;;;;;;10.14;56.44;100648.97;5057989;28;20108;-35
2022/02/17 10:58:37;;;;;;;5.75;1.40;;;;;;;10.23;57.58;100663.81;5060057;28;20057;-35
2022/02/17 11:01:08;;;;;;;9.30;1.90;;;;;;;10.34;56.58;100656.78;5059807;28;20028;-36
2022/02/17 11:03:35;;;;;;;5.05;1.23;;;;;;;10.42;57.37;100657.28;5059878;28;20074;-35
2022/02/17 11:06:03;;;;;;;8.70;1.75;;;;;;;10.27;54.77;100636.13;5060246;28;20028;-35
2022/02/17 11:08:28;;;;;;;9.60;2.08;;;;;;;10.29;56.02;100649.38;5059141;28;20088;-35
2022/02/17 11:10:54;;;;;;;7.10;1.83;;;;;;;10.43;57.08;100667.03;5059612;28;20176;-35
2022/02/17 11:13:24;;;;;;;6.03;1.70;;;;;;;10.56;58.28;100669.50;5059498;28;20057;-35
2022/02/17 11:15:51;;;;;;;5.80;1.73;;;;;;;10.54;57.08;100677.03;5059981;28;20402;-36
2022/02/17 11:18:18;;;;;;;6.05;1.58;;;;;;;10.55;56.75;100667.03;5059617;28;20087;-36
2022/02/17 11:20:46;;;;;;;7.85;2.63;;;;;;;10.55;56.50;100678.69;5059602;28;20048;-35
2022/02/17 11:23:14;;;;;;;6.72;1.75;;;;;;;10.60;57.02;100686.09;5059339;28;20063;-35
2022/02/17 11:25:41;;;;;;;6.85;2.30;;;;;;;10.52;57.12;100662.09;5059607;28;20029;-36
2022/02/17 11:28:09;;;;;;;10.00;2.22;;;;;;;10.54;56.99;100678.91;5060291;28;20079;-35